createdAt,value
2019-02-10T00:00:45.075Z,-0.36
2019-02-10T00:03:13.720Z,-0.42
2019-02-10T00:05:42.644Z,-0.46
2019-02-10T00:08:11.287Z,-0.36
2019-02-10T00:10:39.777Z,-0.41
2019-02-10T00:13:26.838Z,-0.36
2019-02-10T00:15:56.674Z,-0.41
2019-02-10T00:18:25.253Z,-0.46
2019-02-10T00:20:54.107Z,-0.54
2019-02-10T00:23:22.747Z,-0.60
2019-02-10T00:25:51.258Z,-0.71
2019-02-10T00:28:19.797Z,-0.74
2019-02-10T00:30:48.429Z,-0.90
2019-02-10T00:33:17.080Z,-0.89
2019-02-10T00:35:45.777Z,-0.93
2019-02-10T00:38:14.282Z,-0.98
2019-02-10T00:40:42.931Z,-0.92
2019-02-10T00:43:11.612Z,-0.85
2019-02-10T00:45:40.190Z,-0.87
2019-02-10T00:48:08.700Z,-0.81
2019-02-10T00:50:37.385Z,-0.91
2019-02-10T00:53:06.028Z,-0.99
2019-02-10T00:55:34.692Z,-0.77
2019-02-10T00:58:03.385Z,-0.73
2019-02-10T01:00:32.022Z,-0.82
2019-02-10T01:03:00.719Z,-0.93
2019-02-10T01:05:29.265Z,-1.07
2019-02-10T01:07:57.918Z,-1.08
2019-02-10T01:10:27.329Z,-1.08
2019-02-10T01:12:56.005Z,-1.10
2019-02-10T01:15:24.642Z,-0.94
2019-02-10T01:17:53.211Z,-0.94
2019-02-10T01:20:21.949Z,-1.01
2019-02-10T01:22:50.588Z,-1.01
2019-02-10T01:25:19.212Z,-1.09
2019-02-10T01:27:47.890Z,-1.17
2019-02-10T01:30:16.541Z,-1.20
2019-02-10T01:32:45.184Z,-1.23
2019-02-10T01:35:13.962Z,-1.23
2019-02-10T01:37:42.603Z,-1.29
2019-02-10T01:40:11.839Z,-1.27
2019-02-10T01:42:40.638Z,-1.25
2019-02-10T01:45:11.559Z,-1.28
2019-02-10T01:47:40.308Z,-1.26
2019-02-10T01:50:11.048Z,-1.15
2019-02-10T01:52:39.615Z,-1.18
2019-02-10T01:55:13.127Z,-1.15
2019-02-10T01:57:42.207Z,-1.02
2019-02-10T02:00:18.278Z,-0.99
2019-02-10T02:02:46.877Z,-0.98
2019-02-10T02:05:15.841Z,-1.03
2019-02-10T02:07:44.467Z,-0.94
2019-02-10T02:10:14.880Z,-1.06
2019-02-10T02:12:43.445Z,-1.08
2019-02-10T02:15:16.201Z,-1.14
2019-02-10T02:17:44.977Z,-1.18
2019-02-10T02:20:14.317Z,-1.20
2019-02-10T02:22:42.966Z,-1.21
2019-02-10T02:27:46.844Z,-1.32
2019-02-10T02:30:16.129Z,-1.31
2019-02-10T02:32:44.768Z,-1.23
2019-02-10T02:35:13.508Z,-1.24
2019-02-10T02:37:42.229Z,-1.26
2019-02-10T02:40:11.761Z,-1.18
2019-02-10T02:42:40.593Z,-1.17
2019-02-10T02:45:13.602Z,-1.16
2019-02-10T02:47:42.178Z,-1.07
2019-02-10T02:50:11.852Z,-1.06
2019-02-10T02:52:40.614Z,-1.16
2019-02-10T02:55:10.240Z,-1.16
2019-02-10T02:57:38.885Z,-0.94
2019-02-10T03:00:09.385Z,-0.87
2019-02-10T03:02:37.887Z,-0.95
2019-02-10T03:05:08.940Z,-1.12
2019-02-10T03:07:37.607Z,-0.95
2019-02-10T03:10:08.047Z,-0.97
2019-02-10T03:12:36.789Z,-1.16
2019-02-10T03:15:07.975Z,-1.29
2019-02-10T03:17:36.622Z,-1.31
2019-02-10T03:20:07.276Z,-1.31
2019-02-10T03:22:35.857Z,-1.33
2019-02-10T03:25:05.510Z,-1.33
2019-02-10T03:27:34.143Z,-1.33
2019-02-10T03:30:02.680Z,-1.37
2019-02-10T03:32:31.241Z,-1.42
2019-02-10T03:34:59.877Z,-1.38
2019-02-10T03:37:28.546Z,-1.38
2019-02-10T03:39:57.068Z,-1.38
2019-02-10T03:42:25.806Z,-1.34
2019-02-10T03:44:54.484Z,-1.35
2019-02-10T03:47:23.149Z,-1.35
2019-02-10T03:49:51.620Z,-1.38
2019-02-10T03:52:20.493Z,-1.40
2019-02-10T03:54:49.126Z,-1.40
2019-02-10T03:57:17.763Z,-1.33
2019-02-10T03:59:46.428Z,-1.32
2019-02-10T04:02:14.915Z,-1.39
2019-02-10T04:04:43.544Z,-1.39
2019-02-10T04:07:12.417Z,-1.36
2019-02-10T04:09:40.958Z,-1.47
2019-02-10T04:12:09.446Z,-1.45
2019-02-10T04:14:38.134Z,-1.39
2019-02-10T04:17:06.693Z,-1.39
2019-02-10T04:19:35.333Z,-1.42
2019-02-10T04:22:04.211Z,-1.44
2019-02-10T04:24:32.715Z,-1.33
2019-02-10T04:27:01.222Z,-1.26
2019-02-10T04:29:29.900Z,-1.26
2019-02-10T04:31:58.541Z,-1.39
2019-02-10T04:34:27.103Z,-1.39
2019-02-10T04:36:55.700Z,-1.37
2019-02-10T04:39:24.431Z,-1.37
2019-02-10T04:41:53.060Z,-1.36
2019-02-10T04:44:21.611Z,-1.30
2019-02-10T04:46:50.113Z,-1.32
2019-02-10T04:49:18.747Z,-1.42
2019-02-10T04:51:47.433Z,-1.45
2019-02-10T04:54:15.920Z,-1.45
2019-02-10T04:56:44.567Z,-1.48
2019-02-10T04:59:13.269Z,-1.48
2019-02-10T05:01:41.763Z,-1.50
2019-02-10T05:04:10.395Z,-1.55
2019-02-10T05:06:39.087Z,-1.51
2019-02-10T05:09:07.577Z,-1.51
2019-02-10T05:11:36.100Z,-1.63
2019-02-10T05:14:04.764Z,-1.59
2019-02-10T05:16:33.418Z,-1.53
2019-02-10T05:19:01.910Z,-1.61
2019-02-10T05:21:30.454Z,-1.66
2019-02-10T05:24:03.464Z,-1.66
2019-02-10T05:26:29.470Z,-1.83
2019-02-10T05:28:58.003Z,-1.75
2019-02-10T05:31:26.519Z,-1.73
2019-02-10T05:33:55.179Z,-1.72
2019-02-10T05:36:26.604Z,-1.77
2019-02-10T05:38:55.246Z,-1.83
2019-02-10T05:41:23.894Z,-1.76
2019-02-10T05:43:52.495Z,-1.78
2019-02-10T05:46:20.993Z,-1.80
2019-02-10T05:48:49.707Z,-1.55
2019-02-10T05:51:18.389Z,-1.31
2019-02-10T05:53:46.917Z,-1.03
2019-02-10T05:56:15.407Z,-0.61
2019-02-10T05:58:44.107Z,-0.26
2019-02-10T06:01:49.326Z,0.14
2019-02-10T06:04:17.989Z,0.65
2019-02-10T06:06:46.485Z,0.97
2019-02-10T06:09:15.128Z,1.41
2019-02-10T06:11:43.791Z,1.96
2019-02-10T06:14:12.278Z,2.40
2019-02-10T06:16:40.773Z,2.92
2019-02-10T06:19:09.437Z,3.48
2019-02-10T06:21:38.080Z,3.84
2019-02-10T06:24:06.570Z,4.28
2019-02-10T06:26:35.107Z,4.87
2019-02-10T06:29:03.786Z,5.30
2019-02-10T06:31:32.414Z,5.57
2019-02-10T06:34:00.940Z,5.82
2019-02-10T06:36:29.435Z,6.30
2019-02-10T06:38:58.092Z,6.71
2019-02-10T06:41:26.750Z,7.21
2019-02-10T06:43:55.238Z,7.67
2019-02-10T06:46:23.737Z,7.84
2019-02-10T06:48:52.393Z,8.17
2019-02-10T06:51:21.024Z,8.48
2019-02-10T06:53:49.512Z,8.61
2019-02-10T06:56:18.178Z,8.53
2019-02-10T06:58:48.257Z,8.19
2019-02-10T07:01:33.567Z,8.12
2019-02-10T07:04:05.394Z,8.52
2019-02-10T07:06:34.026Z,8.93
2019-02-10T07:09:02.860Z,9.20
2019-02-10T07:11:31.357Z,9.26
2019-02-10T07:13:59.981Z,9.43
2019-02-10T07:16:37.595Z,9.45
2019-02-10T07:19:42.585Z,9.34
2019-02-10T07:22:43.164Z,9.56
2019-02-10T07:25:17.688Z,9.71
2019-02-10T07:28:04.521Z,9.78
2019-02-10T07:30:41.990Z,9.30
2019-02-10T07:33:16.940Z,9.44
2019-02-10T07:36:20.324Z,9.15
2019-02-10T07:38:51.919Z,9.29
2019-02-10T07:41:25.975Z,9.21
2019-02-10T07:44:12.805Z,8.55
2019-02-10T07:46:56.105Z,8.32
2019-02-10T07:49:47.254Z,8.56
2019-02-10T07:52:36.934Z,8.92
2019-02-10T07:55:43.573Z,8.86
2019-02-10T07:58:30.111Z,9.20
2019-02-10T08:01:17.859Z,9.39
2019-02-10T08:03:54.970Z,8.87
2019-02-10T08:06:26.514Z,8.89
2019-02-10T08:09:00.908Z,9.10
2019-02-10T08:11:32.438Z,9.40
2019-02-10T08:14:19.051Z,9.11
2019-02-10T08:17:08.372Z,8.79
2019-02-10T08:20:05.765Z,8.06
2019-02-10T08:22:53.784Z,7.90
2019-02-10T08:25:41.853Z,7.15
2019-02-10T08:28:17.150Z,7.34
2019-02-10T08:30:54.905Z,7.60
2019-02-10T08:33:32.450Z,7.41
2019-02-10T08:36:31.127Z,7.49
2019-02-10T08:39:28.168Z,7.44
2019-02-10T08:42:08.948Z,7.30
2019-02-10T08:45:07.553Z,7.03
2019-02-10T08:47:50.546Z,6.88
2019-02-10T08:50:46.062Z,6.96
2019-02-10T08:53:20.848Z,6.63
2019-02-10T08:55:49.467Z,6.89
2019-02-10T08:58:17.953Z,6.84
2019-02-10T09:00:46.561Z,6.79
2019-02-10T09:03:19.611Z,6.58
2019-02-10T09:05:45.419Z,6.81
2019-02-10T09:08:14.085Z,6.88
2019-02-10T09:10:42.710Z,6.75
2019-02-10T09:13:11.195Z,6.69
2019-02-10T09:15:39.722Z,6.64
2019-02-10T09:18:08.345Z,6.77
2019-02-10T09:20:36.841Z,6.68
2019-02-10T09:23:05.498Z,6.53
2019-02-10T09:25:34.121Z,6.48
2019-02-10T09:28:02.606Z,6.69
2019-02-10T09:30:31.213Z,6.60
2019-02-10T09:32:59.829Z,6.73
2019-02-10T09:35:28.456Z,6.42
2019-02-10T09:37:56.978Z,6.53
2019-02-10T09:40:25.502Z,6.77
2019-02-10T09:42:54.226Z,6.97
2019-02-10T09:45:22.946Z,7.05
2019-02-10T09:47:51.563Z,7.09
2019-02-10T09:50:20.689Z,7.11
2019-02-10T09:52:49.222Z,7.28
2019-02-10T09:55:17.717Z,7.39
2019-02-10T09:57:46.343Z,7.54
2019-02-10T10:00:15.603Z,7.74
2019-02-10T10:02:44.219Z,7.82
2019-02-10T10:05:13.940Z,7.83
2019-02-10T10:07:48.331Z,7.97
2019-02-10T10:10:16.952Z,8.08
2019-02-10T10:12:45.445Z,8.23
2019-02-10T10:15:16.112Z,8.26
2019-02-10T10:17:44.842Z,8.35
2019-02-10T10:20:16.317Z,8.52
2019-02-10T10:22:45.634Z,8.65
2019-02-10T10:25:14.365Z,8.68
2019-02-10T10:27:42.855Z,8.71
2019-02-10T10:30:14.144Z,8.78
2019-02-10T10:32:42.840Z,8.86
2019-02-10T10:35:11.463Z,9.03
2019-02-10T10:37:40.049Z,9.20
2019-02-10T10:40:30.019Z,9.19
2019-02-10T10:42:58.704Z,9.40
2019-02-10T10:45:27.336Z,9.42
2019-02-10T10:47:55.818Z,9.51
2019-02-10T10:50:24.413Z,9.63
2019-02-10T10:52:53.025Z,9.66
2019-02-10T10:55:21.641Z,9.74
2019-02-10T10:57:50.236Z,9.80
2019-02-10T11:00:18.919Z,9.98
2019-02-10T11:02:47.548Z,10.08
2019-02-10T11:05:16.498Z,10.23
2019-02-10T11:07:45.150Z,10.30
2019-02-10T11:10:14.154Z,10.32
2019-02-10T11:15:18.282Z,10.38
2019-02-10T11:17:46.900Z,10.44
2019-02-10T11:20:15.530Z,10.37
2019-02-10T11:22:44.056Z,10.48
2019-02-10T11:25:12.910Z,10.26
2019-02-10T11:27:41.530Z,10.36
2019-02-10T11:30:13.249Z,10.46
2019-02-10T11:32:41.809Z,10.57
2019-02-10T11:35:10.429Z,10.63
2019-02-10T11:37:39.105Z,10.71
2019-02-10T11:40:10.247Z,10.63
2019-02-10T11:42:38.865Z,10.59
2019-02-10T11:45:13.053Z,10.52
2019-02-10T11:47:41.673Z,10.73
2019-02-10T11:50:12.355Z,10.82
2019-02-10T11:52:41.021Z,10.88
2019-02-10T11:55:10.636Z,10.98
2019-02-10T11:57:39.256Z,10.95
2019-02-10T12:00:16.928Z,10.88
2019-02-10T12:02:45.560Z,11.08
2019-02-10T12:05:14.226Z,11.13
2019-02-10T12:07:42.871Z,11.00
2019-02-10T12:10:14.666Z,10.92
2019-02-10T12:12:43.149Z,11.03
2019-02-10T12:15:13.951Z,11.04
2019-02-10T12:17:42.566Z,11.13
2019-02-10T12:20:14.901Z,11.20
2019-02-10T12:22:49.949Z,11.25
2019-02-10T12:25:13.928Z,11.15
2019-02-10T12:27:42.529Z,11.22
2019-02-10T12:30:15.981Z,11.06
2019-02-10T12:32:44.597Z,11.07
2019-02-10T12:35:13.320Z,11.03
2019-02-10T12:37:41.906Z,11.03
2019-02-10T12:40:11.833Z,11.14
2019-02-10T12:42:40.452Z,11.20
2019-02-10T12:45:11.112Z,11.14
2019-02-10T12:47:39.747Z,11.35
2019-02-10T12:50:11.312Z,11.43
2019-02-10T12:52:39.968Z,11.39
2019-02-10T12:55:09.898Z,11.22
2019-02-10T12:57:38.510Z,11.01
2019-02-10T13:00:10.231Z,10.98
2019-02-10T13:02:38.720Z,11.09
2019-02-10T13:05:07.646Z,11.07
2019-02-10T13:07:36.175Z,11.30
2019-02-10T13:10:08.390Z,11.43
2019-02-10T13:12:37.156Z,11.65
2019-02-10T13:15:07.416Z,11.49
2019-02-10T13:17:35.914Z,11.39
2019-02-10T13:20:06.579Z,11.34
2019-02-10T13:22:35.243Z,11.38
2019-02-10T13:25:04.685Z,11.47
2019-02-10T13:27:33.255Z,11.66
2019-02-10T13:30:01.803Z,11.83
2019-02-10T13:32:36.350Z,11.88
2019-02-10T13:35:05.282Z,12.06
2019-02-10T13:37:33.820Z,12.14
2019-02-10T13:40:02.299Z,12.09
2019-02-10T13:42:30.916Z,12.19
2019-02-10T13:44:59.511Z,12.08
2019-02-10T13:47:28.065Z,12.05
2019-02-10T13:49:56.697Z,12.02
2019-02-10T13:52:25.522Z,12.08
2019-02-10T13:54:54.007Z,12.22
2019-02-10T13:57:22.619Z,12.28
2019-02-10T13:59:51.293Z,12.11
2019-02-10T14:02:19.772Z,12.21
2019-02-10T14:04:48.272Z,11.99
2019-02-10T14:07:16.925Z,12.04
2019-02-10T14:09:45.545Z,12.11
2019-02-10T14:12:14.131Z,12.07
2019-02-10T14:14:42.686Z,12.03
2019-02-10T14:17:11.299Z,12.01
2019-02-10T14:19:39.925Z,12.01
2019-02-10T14:22:08.629Z,12.01
2019-02-10T14:24:37.259Z,12.04
2019-02-10T14:27:05.732Z,12.00
2019-02-10T14:29:34.373Z,11.94
2019-02-10T14:32:03.008Z,11.91
2019-02-10T14:34:31.628Z,11.83
2019-02-10T14:37:00.157Z,11.76
2019-02-10T14:39:28.645Z,11.68
2019-02-10T14:41:57.278Z,11.68
2019-02-10T14:44:25.932Z,11.68
2019-02-10T14:46:54.483Z,11.74
2019-02-10T14:49:23.552Z,11.72
2019-02-10T14:51:52.223Z,11.65
2019-02-10T14:54:26.818Z,11.56
2019-02-10T14:56:55.302Z,11.59
2019-02-10T14:59:23.839Z,11.50
2019-02-10T15:01:52.467Z,11.40
2019-02-10T15:04:20.948Z,11.36
2019-02-10T15:06:49.628Z,11.35
2019-02-10T15:09:18.320Z,11.26
2019-02-10T15:11:46.844Z,11.28
2019-02-10T15:14:15.369Z,11.16
2019-02-10T15:16:43.989Z,11.13
2019-02-10T15:19:12.607Z,10.96
2019-02-10T15:21:42.411Z,10.82
2019-02-10T15:24:11.102Z,10.70
2019-02-10T15:26:39.729Z,10.64
2019-02-10T15:29:08.410Z,10.52
2019-02-10T15:31:36.919Z,10.43
2019-02-10T15:34:05.455Z,10.36
2019-02-10T15:36:34.393Z,10.24
2019-02-10T15:39:03.117Z,10.16
2019-02-10T15:41:31.632Z,10.13
2019-02-10T15:44:00.553Z,10.07
2019-02-10T15:46:29.116Z,9.94
2019-02-10T15:48:57.617Z,9.85
2019-02-10T15:51:35.551Z,9.70
2019-02-10T15:53:56.858Z,9.53
2019-02-10T15:56:25.368Z,9.40
2019-02-10T15:58:53.899Z,9.26
2019-02-10T16:01:22.646Z,9.13
2019-02-10T16:03:51.312Z,9.07
2019-02-10T16:06:19.840Z,8.98
2019-02-10T16:08:48.348Z,8.91
2019-02-10T16:11:17.053Z,8.85
2019-02-10T16:13:45.906Z,8.76
2019-02-10T16:16:20.390Z,8.68
2019-02-10T16:18:48.961Z,8.62
2019-02-10T16:21:17.627Z,8.58
2019-02-10T16:23:46.117Z,8.51
2019-02-10T16:26:14.758Z,8.47
2019-02-10T16:28:43.463Z,8.42
2019-02-10T16:31:11.961Z,8.35
2019-02-10T16:33:40.566Z,8.33
2019-02-10T16:36:09.228Z,8.27
2019-02-10T16:38:37.815Z,8.25
2019-02-10T16:41:06.844Z,8.25
2019-02-10T16:43:35.516Z,8.19
2019-02-10T16:46:04.142Z,8.14
2019-02-10T16:48:32.787Z,8.17
2019-02-10T16:51:01.391Z,8.11
2019-02-10T16:53:33.045Z,8.04
2019-02-10T16:56:01.665Z,7.96
2019-02-10T16:58:30.332Z,7.87
2019-02-10T17:00:58.830Z,7.81
2019-02-10T17:03:27.312Z,7.75
2019-02-10T17:05:55.983Z,7.73
2019-02-10T17:08:24.722Z,7.80
2019-02-10T17:10:53.221Z,7.84
2019-02-10T17:13:22.015Z,7.80
2019-02-10T17:15:50.644Z,7.68
2019-02-10T17:18:19.265Z,7.73
2019-02-10T17:20:47.810Z,7.71
2019-02-10T17:23:16.293Z,7.74
2019-02-10T17:25:44.922Z,7.68
2019-02-10T17:28:13.588Z,7.66
2019-02-10T17:30:42.168Z,7.55
2019-02-10T17:33:10.661Z,7.39
2019-02-10T17:35:39.334Z,7.56
2019-02-10T17:38:07.972Z,7.59
2019-02-10T17:40:39.370Z,7.45
2019-02-10T17:43:08.047Z,7.34
2019-02-10T17:45:36.540Z,7.28
2019-02-10T17:48:05.267Z,7.17
2019-02-10T17:50:33.950Z,7.11
2019-02-10T17:53:02.568Z,7.18
2019-02-10T17:55:31.062Z,7.28
2019-02-10T17:57:59.592Z,7.17
2019-02-10T18:00:29.863Z,7.10
2019-02-10T18:02:58.498Z,6.99
2019-02-10T18:05:27.174Z,6.90
2019-02-10T18:07:55.669Z,6.87
2019-02-10T18:10:24.306Z,7.03
2019-02-10T18:12:52.973Z,7.06
2019-02-10T18:15:32.027Z,6.94
2019-02-10T18:18:18.132Z,6.81
2019-02-10T18:21:07.476Z,6.64
2019-02-10T18:23:43.820Z,6.61
2019-02-10T18:26:30.255Z,6.56
2019-02-10T18:29:16.745Z,6.50
2019-02-10T18:31:49.509Z,6.58
2019-02-10T18:34:19.630Z,6.74
2019-02-10T18:37:01.768Z,6.77
2019-02-10T18:39:38.197Z,6.74
2019-02-10T18:42:08.364Z,6.57
2019-02-10T18:44:41.272Z,6.53
2019-02-10T18:47:26.868Z,6.46
2019-02-10T18:50:00.234Z,6.52
2019-02-10T18:52:30.382Z,6.61
2019-02-10T18:55:00.553Z,6.67
2019-02-10T18:57:47.275Z,6.69
2019-02-10T19:00:29.580Z,6.66
2019-02-10T19:02:59.704Z,6.47
2019-02-10T19:05:32.703Z,6.54
2019-02-10T19:08:02.957Z,6.57
2019-02-10T19:10:36.064Z,6.44
2019-02-10T19:13:06.331Z,6.24
2019-02-10T19:15:36.698Z,6.18
2019-02-10T19:18:16.203Z,6.21
2019-02-10T19:20:51.849Z,6.19
2019-02-10T19:23:34.040Z,6.15
2019-02-10T19:26:04.360Z,6.30
2019-02-10T19:28:40.275Z,6.30
2019-02-10T19:31:26.789Z,6.26
2019-02-10T19:33:59.725Z,6.22
2019-02-10T19:36:30.032Z,6.13
2019-02-10T19:39:16.422Z,5.95
2019-02-10T19:42:03.175Z,5.96
2019-02-10T19:44:49.704Z,5.99
2019-02-10T19:47:22.586Z,6.00
2019-02-10T19:50:09.575Z,6.03
2019-02-10T19:52:51.765Z,6.02
2019-02-10T19:55:27.796Z,5.91
2019-02-10T19:58:03.722Z,5.75
2019-02-10T20:00:42.971Z,5.83
2019-02-10T20:03:19.020Z,5.76
2019-02-10T20:05:52.177Z,5.73
2019-02-10T20:08:25.157Z,5.69
2019-02-10T20:11:01.368Z,5.63
2019-02-10T20:13:37.811Z,5.65
2019-02-10T20:16:08.112Z,5.55
2019-02-10T20:18:38.310Z,5.50
2019-02-10T20:21:08.590Z,5.43
2019-02-10T20:23:41.722Z,5.40
2019-02-10T20:26:17.611Z,5.38
2019-02-10T20:28:56.736Z,5.33
2019-02-10T20:31:26.871Z,5.35
2019-02-10T20:34:02.614Z,5.27
2019-02-10T20:36:35.897Z,5.27
2019-02-10T20:39:09.826Z,5.23
2019-02-10T20:41:40.018Z,5.38
2019-02-10T20:44:18.684Z,5.32
2019-02-10T20:47:41.884Z,5.25
2019-02-10T20:50:21.518Z,5.26
2019-02-10T20:53:03.658Z,5.13
2019-02-10T20:55:36.552Z,5.07
2019-02-10T20:58:23.569Z,5.05
2019-02-10T21:00:56.868Z,5.09
2019-02-10T21:03:32.541Z,5.14
2019-02-10T21:06:02.701Z,5.01
2019-02-10T21:08:35.838Z,5.06
2019-02-10T21:11:12.009Z,5.02
2019-02-10T21:14:00.852Z,5.00
2019-02-10T21:16:47.331Z,5.09
2019-02-10T21:19:32.245Z,4.87
2019-02-10T21:22:11.849Z,4.98
2019-02-10T21:27:57.128Z,4.92
2019-02-10T21:30:42.324Z,4.83
2019-02-10T21:33:15.757Z,4.73
2019-02-10T21:35:46.033Z,4.65
2019-02-10T21:38:25.306Z,4.65
2019-02-10T21:40:55.431Z,4.67
2019-02-10T21:43:37.211Z,4.68
2019-02-10T21:46:13.287Z,4.63
2019-02-10T21:48:43.813Z,4.59
2019-02-10T21:51:12.369Z,4.59
2019-02-10T21:53:40.991Z,4.49
2019-02-10T21:56:09.657Z,4.42
2019-02-10T21:58:38.159Z,4.32
2019-02-10T22:01:06.800Z,4.25
2019-02-10T22:03:35.474Z,4.13
2019-02-10T22:06:04.031Z,4.13
2019-02-10T22:08:32.599Z,4.14
2019-02-10T22:11:01.256Z,4.00
2019-02-10T22:13:29.882Z,4.02
2019-02-10T22:15:58.384Z,3.97
2019-02-10T22:18:26.925Z,3.97
2019-02-10T22:20:55.570Z,3.96
2019-02-10T22:23:24.223Z,3.92
2019-02-10T22:25:52.966Z,3.85
2019-02-10T22:28:21.454Z,3.85
2019-02-10T22:30:50.091Z,3.74
2019-02-10T22:33:18.769Z,3.60
2019-02-10T22:35:47.351Z,3.57
2019-02-10T22:38:15.841Z,3.59
2019-02-10T22:40:44.499Z,3.55
2019-02-10T22:43:13.134Z,3.56
2019-02-10T22:45:41.637Z,3.54
2019-02-10T22:48:10.422Z,3.46
2019-02-10T22:50:39.054Z,3.37
2019-02-10T22:53:07.677Z,3.38
2019-02-10T22:55:36.239Z,3.36
2019-02-10T22:58:04.731Z,3.29
2019-02-10T23:00:43.962Z,3.34
2019-02-10T23:03:12.776Z,3.38
2019-02-10T23:05:41.429Z,3.28
2019-02-10T23:08:09.959Z,3.24
2019-02-10T23:10:38.577Z,3.34
2019-02-10T23:13:07.129Z,3.37
2019-02-10T23:15:36.003Z,3.32
2019-02-10T23:18:04.634Z,3.19
2019-02-10T23:20:33.138Z,3.16
2019-02-10T23:23:02.699Z,3.15
2019-02-10T23:25:31.334Z,3.27
2019-02-10T23:27:59.957Z,3.36
2019-02-10T23:30:28.813Z,3.38
2019-02-10T23:32:57.298Z,3.27
2019-02-10T23:35:28.666Z,3.15
2019-02-10T23:37:57.542Z,3.10
2019-02-10T23:40:26.033Z,3.07
2019-02-10T23:43:01.893Z,3.06
2019-02-10T23:45:24.920Z,3.14
2019-02-10T23:47:53.556Z,3.17
2019-02-10T23:50:22.054Z,3.11
2019-02-10T23:52:50.736Z,3.14
2019-02-10T23:55:19.224Z,3.04
2019-02-10T23:57:47.726Z,3.00
